Time;durP1;ratioP1;P1;durP2;ratioP2;P2;SDS_P1;SDS_P2;PMS_P1;PMS_P2;Temp;Humidity;BMP_temperature;BMP_pressure;BME280_temperature;BME280_humidity;BME280_pressure;Samples;Min_cycle;Max_cycle;Signal;HPM_P1;HPM_P2
2022/02/26 00:01:20;;;;;;;75.68;39.72;;;;;;;;;;4857653;29;20076;-76
2022/02/26 00:03:46;;;;;;;71.47;37.40;;;;;;;;;;4865099;29;20830;-76
2022/02/26 00:06:12;;;;;;;62.03;33.10;;;;;;;;;;4857951;29;20044;-76
2022/02/26 00:08:38;;;;;;;42.03;20.85;;;;;;;;;;4865644;29;20041;-76
2022/02/26 00:11:05;;;;;;;28.33;12.45;;;;;;;;;;4876324;29;20429;-76
2022/02/26 00:13:31;;;;;;;25.30;8.90;;;;;;;;;;4858706;29;20085;-76
2022/02/26 00:15:57;;;;;;;19.35;7.57;;;;;;;;;;4863823;29;20044;-76
2022/02/26 00:18:23;;;;;;;15.23;5.57;;;;;;;;;;4866965;29;20038;-76
2022/02/26 00:20:49;;;;;;;13.15;2.65;;;;;;;;;;4876010;29;20112;-76
2022/02/26 00:23:15;;;;;;;19.13;5.90;;;;;;;;;;4874104;29;20116;-76
2022/02/26 00:25:41;;;;;;;20.42;7.40;;;;;;;;;;4875335;29;20033;-76
2022/02/26 00:28:07;;;;;;;12.30;4.53;;;;;;;;;;4865869;29;20825;-76
2022/02/26 00:30:33;;;;;;;17.30;4.88;;;;;;;;;;4870230;29;20096;-76
2022/02/26 00:32:59;;;;;;;12.45;3.70;;;;;;;;;;4876133;29;20051;-76
2022/02/26 00:35:25;;;;;;;12.85;3.40;;;;;;;;;;4864253;29;20404;-76
2022/02/26 00:37:51;;;;;;;12.68;3.70;;;;;;;;;;4869022;29;20052;-76
2022/02/26 00:40:17;;;;;;;12.77;2.60;;;;;;;;;;4871423;29;20041;-76
2022/02/26 00:42:43;;;;;;;11.05;2.05;;;;;;;;;;4857041;29;20037;-76
2022/02/26 00:45:09;;;;;;;8.88;1.95;;;;;;;;;;4858165;29;20151;-77
2022/02/26 00:47:35;;;;;;;14.35;2.55;;;;;;;;;;4857307;29;20484;-76
2022/02/26 00:50:03;;;;;;;41.63;21.65;;;;;;;;;;4857923;29;20042;-76
2022/02/26 00:52:31;;;;;;;32.45;17.65;;;;;;;;;;4874762;29;20064;-75
2022/02/26 00:54:57;;;;;;;21.48;11.48;;;;;;;;;;4861976;29;20033;-76
2022/02/26 00:57:23;;;;;;;31.00;16.13;;;;;;;;;;4856568;29;20151;-76
2022/02/26 00:59:50;;;;;;;15.93;5.93;;;;;;;;;;4857283;29;20065;-76
2022/02/26 01:02:19;;;;;;;14.60;5.50;;;;;;;;;;4857846;29;20668;-76
2022/02/26 01:04:46;;;;;;;14.27;6.28;;;;;;;;;;4858989;29;20074;-76
2022/02/26 01:07:12;;;;;;;14.93;6.20;;;;;;;;;;4862216;29;20064;-76
2022/02/26 01:09:38;;;;;;;13.35;4.93;;;;;;;;;;4856976;29;20741;-76
2022/02/26 01:12:06;;;;;;;11.65;4.30;;;;;;;;;;4857311;29;20133;-76
2022/02/26 01:14:33;;;;;;;12.73;5.10;;;;;;;;;;4856879;29;20037;-76
2022/02/26 01:16:59;;;;;;;11.00;4.40;;;;;;;;;;4865506;29;20034;-76
2022/02/26 01:19:25;;;;;;;18.13;3.78;;;;;;;;;;4872685;29;20133;-76
2022/02/26 01:21:52;;;;;;;9.23;3.40;;;;;;;;;;4856167;29;20261;-76
2022/02/26 01:24:18;;;;;;;15.85;4.43;;;;;;;;;;4856888;29;20038;-76
2022/02/26 01:26:44;;;;;;;9.52;3.20;;;;;;;;;;4856473;29;20540;-76
2022/02/26 01:29:10;;;;;;;10.13;2.85;;;;;;;;;;4860520;29;20065;-76
2022/02/26 01:31:36;;;;;;;19.58;5.40;;;;;;;;;;4866139;29;20109;-76
2022/02/26 01:34:03;;;;;;;17.80;5.35;;;;;;;;;;4868440;29;20153;-75
2022/02/26 01:36:29;;;;;;;10.68;3.53;;;;;;;;;;4859857;29;20120;-76
2022/02/26 01:38:55;;;;;;;13.13;4.55;;;;;;;;;;4859519;29;20412;-75
2022/02/26 01:41:21;;;;;;;15.45;5.03;;;;;;;;;;4860698;29;20064;-75
2022/02/26 01:43:47;;;;;;;14.23;4.80;;;;;;;;;;4860367;29;20112;-76
2022/02/26 01:46:13;;;;;;;13.45;4.95;;;;;;;;;;4860201;29;20478;-76
2022/02/26 01:48:39;;;;;;;19.45;9.63;;;;;;;;;;4869190;29;20109;-76
2022/02/26 01:51:06;;;;;;;21.13;10.15;;;;;;;;;;4871293;29;20073;-75
2022/02/26 01:53:33;;;;;;;23.95;11.27;;;;;;;;;;4862537;29;20527;-75
2022/02/26 01:55:59;;;;;;;15.13;5.32;;;;;;;;;;4860048;29;20120;-75
2022/02/26 01:58:25;;;;;;;11.15;4.60;;;;;;;;;;4859475;29;20120;-75
2022/02/26 02:00:51;;;;;;;8.63;2.30;;;;;;;;;;4860761;29;20033;-75
2022/02/26 02:03:17;;;;;;;7.55;1.85;;;;;;;;;;4860038;29;20045;-75
2022/02/26 02:05:43;;;;;;;10.15;2.50;;;;;;;;;;4866907;29;20029;-75
2022/02/26 02:08:11;;;;;;;6.22;1.67;;;;;;;;;;4858914;29;20033;-75
2022/02/26 02:10:38;;;;;;;9.50;2.10;;;;;;;;;;4859709;29;20476;-75
2022/02/26 02:13:04;;;;;;;11.25;2.55;;;;;;;;;;4860076;29;20041;-75
2022/02/26 02:15:32;;;;;;;8.80;2.25;;;;;;;;;;4859215;29;20045;-75
2022/02/26 02:17:58;;;;;;;10.05;3.10;;;;;;;;;;4874198;29;20040;-76
2022/02/26 02:20:24;;;;;;;10.38;3.67;;;;;;;;;;4877560;29;20061;-75
2022/02/26 02:22:50;;;;;;;11.43;3.13;;;;;;;;;;4878296;29;20029;-75
2022/02/26 02:25:17;;;;;;;9.32;3.05;;;;;;;;;;4874266;29;20041;-75
2022/02/26 02:27:44;;;;;;;13.88;4.07;;;;;;;;;;4867609;29;20040;-75
2022/02/26 02:30:10;;;;;;;9.13;3.03;;;;;;;;;;4874439;29;20038;-75
2022/02/26 02:32:36;;;;;;;9.85;3.75;;;;;;;;;;4866200;29;20029;-75
2022/02/26 02:35:03;;;;;;;10.50;2.83;;;;;;;;;;4860297;29;20085;-75
2022/02/26 02:37:29;;;;;;;11.10;3.17;;;;;;;;;;4864227;29;20053;-75
2022/02/26 02:39:55;;;;;;;10.80;3.40;;;;;;;;;;4865297;29;20049;-75
2022/02/26 02:42:21;;;;;;;11.93;3.55;;;;;;;;;;4868675;29;20037;-75
2022/02/26 02:44:47;;;;;;;10.88;3.00;;;;;;;;;;4863164;29;20487;-76
2022/02/26 02:47:13;;;;;;;9.85;3.75;;;;;;;;;;4858716;29;20686;-75
2022/02/26 02:49:39;;;;;;;12.55;3.30;;;;;;;;;;4859264;29;20810;-75
2022/02/26 02:52:05;;;;;;;13.90;3.85;;;;;;;;;;4858529;29;20170;-75
2022/02/26 02:54:31;;;;;;;13.02;3.63;;;;;;;;;;4862631;29;20041;-75
2022/02/26 02:56:57;;;;;;;11.70;3.80;;;;;;;;;;4866660;29;20044;-75
2022/02/26 02:59:24;;;;;;;13.18;3.22;;;;;;;;;;4867529;29;20090;-75
2022/02/26 03:01:51;;;;;;;9.98;3.10;;;;;;;;;;4860375;29;20029;-75
2022/02/26 03:04:17;;;;;;;8.43;2.70;;;;;;;;;;4874634;29;20505;-75
2022/02/26 03:06:43;;;;;;;12.05;3.30;;;;;;;;;;4864668;29;20029;-75
2022/02/26 03:09:09;;;;;;;13.55;4.15;;;;;;;;;;4867089;29;20377;-74
2022/02/26 03:11:35;;;;;;;14.20;4.25;;;;;;;;;;4862400;29;20034;-75
2022/02/26 03:14:01;;;;;;;11.18;4.65;;;;;;;;;;4868800;29;20049;-75
2022/02/26 03:16:27;;;;;;;11.20;4.15;;;;;;;;;;4862561;29;20543;-75
2022/02/26 03:18:53;;;;;;;17.45;5.72;;;;;;;;;;4861497;29;20042;-75
2022/02/26 03:21:19;;;;;;;13.07;5.75;;;;;;;;;;4858125;29;20036;-74
2022/02/26 03:23:45;;;;;;;12.27;4.25;;;;;;;;;;4869239;29;20087;-75
2022/02/26 03:26:11;;;;;;;12.60;3.50;;;;;;;;;;4858260;29;20850;-75
2022/02/26 03:28:37;;;;;;;8.25;2.95;;;;;;;;;;4870031;29;20041;-74
2022/02/26 03:31:03;;;;;;;10.35;4.07;;;;;;;;;;4858079;29;20049;-75
2022/02/26 03:33:30;;;;;;;14.13;6.00;;;;;;;;;;4857401;29;20068;-74
2022/02/26 03:35:56;;;;;;;15.93;5.13;;;;;;;;;;4858172;29;20040;-75
2022/02/26 03:38:22;;;;;;;15.82;3.72;;;;;;;;;;4867262;29;20058;-74
2022/02/26 03:40:49;;;;;;;10.75;3.20;;;;;;;;;;4864676;29;20064;-74
2022/02/26 03:43:15;;;;;;;12.77;3.38;;;;;;;;;;4866697;29;20055;-74
2022/02/26 03:45:41;;;;;;;10.60;3.38;;;;;;;;;;4871987;29;20606;-75
2022/02/26 03:48:07;;;;;;;25.02;8.15;;;;;;;;;;4857345;29;20456;-74
2022/02/26 03:50:33;;;;;;;34.83;9.65;;;;;;;;;;4856773;29;20038;-74
2022/02/26 03:52:59;;;;;;;28.38;10.57;;;;;;;;;;4857491;29;20480;-74
2022/02/26 03:55:25;;;;;;;26.13;7.30;;;;;;;;;;4857371;29;20121;-75
2022/02/26 03:57:51;;;;;;;19.20;7.00;;;;;;;;;;4857609;29;20372;-74
2022/02/26 04:00:17;;;;;;;15.38;5.30;;;;;;;;;;4857158;29;20041;-74
2022/02/26 04:02:44;;;;;;;12.95;3.70;;;;;;;;;;4858004;29;20125;-74
2022/02/26 04:05:10;;;;;;;12.35;4.50;;;;;;;;;;4863904;29;20579;-74
2022/02/26 04:07:40;;;;;;;13.23;3.65;;;;;;;;;;4857723;29;20041;-74
2022/02/26 04:10:06;;;;;;;14.50;6.07;;;;;;;;;;4860644;29;20065;-74
2022/02/26 04:12:32;;;;;;;26.92;10.30;;;;;;;;;;4859096;29;20492;-74
2022/02/26 04:14:58;;;;;;;19.27;8.32;;;;;;;;;;4862613;29;20041;-74
2022/02/26 04:17:24;;;;;;;22.02;7.05;;;;;;;;;;4863150;29;20045;-74
2022/02/26 04:19:50;;;;;;;18.88;7.90;;;;;;;;;;4865182;29;20029;-74
2022/02/26 04:22:16;;;;;;;16.35;7.13;;;;;;;;;;4864302;29;20475;-74
2022/02/26 04:24:42;;;;;;;28.40;15.77;;;;;;;;;;4856969;29;20037;-75
2022/02/26 04:27:08;;;;;;;21.13;10.65;;;;;;;;;;4867747;29;20040;-74
2022/02/26 04:29:34;;;;;;;19.70;9.02;;;;;;;;;;4871871;29;20068;-74
2022/02/26 04:32:00;;;;;;;24.35;11.70;;;;;;;;;;4857521;29;20063;-74
2022/02/26 04:34:26;;;;;;;17.05;7.72;;;;;;;;;;4855750;29;20392;-74
2022/02/26 04:36:52;;;;;;;18.05;6.03;;;;;;;;;;4857146;29;20045;-74
2022/02/26 04:39:18;;;;;;;18.98;9.02;;;;;;;;;;4856276;29;20072;-75
2022/02/26 04:41:44;;;;;;;17.48;6.15;;;;;;;;;;4856157;29;20163;-75
2022/02/26 04:44:10;;;;;;;17.27;5.88;;;;;;;;;;4856806;29;20065;-74
2022/02/26 04:46:36;;;;;;;17.58;6.70;;;;;;;;;;4856211;29;20034;-74
2022/02/26 04:49:02;;;;;;;15.43;6.40;;;;;;;;;;4863544;29;20033;-74
2022/02/26 04:51:28;;;;;;;13.32;5.35;;;;;;;;;;4859466;29;20523;-74
2022/02/26 04:53:54;;;;;;;11.73;4.95;;;;;;;;;;4869673;29;20038;-74
2022/02/26 04:56:20;;;;;;;9.75;4.80;;;;;;;;;;4845289;29;20041;-74
2022/02/26 04:58:46;;;;;;;13.75;4.28;;;;;;;;;;4870212;29;20044;-74
2022/02/26 05:01:12;;;;;;;12.73;4.18;;;;;;;;;;4872554;29;20033;-74
2022/02/26 05:03:40;;;;;;;12.65;4.10;;;;;;;;;;4860374;29;20033;-74
2022/02/26 05:06:06;;;;;;;10.82;3.92;;;;;;;;;;4866347;29;20041;-74
2022/02/26 05:08:32;;;;;;;10.40;4.78;;;;;;;;;;4863544;29;20033;-74
2022/02/26 05:10:58;;;;;;;11.57;4.55;;;;;;;;;;4859775;29;20817;-74
2022/02/26 05:13:25;;;;;;;11.20;3.85;;;;;;;;;;4861620;29;20053;-74
2022/02/26 05:15:51;;;;;;;13.50;4.45;;;;;;;;;;4868270;29;20041;-74
2022/02/26 05:18:17;;;;;;;15.30;5.18;;;;;;;;;;4874289;29;20039;-73
2022/02/26 05:20:43;;;;;;;11.75;4.25;;;;;;;;;;4866825;29;20109;-74
2022/02/26 05:23:10;;;;;;;14.00;4.55;;;;;;;;;;4860457;29;20037;-74
2022/02/26 05:25:36;;;;;;;16.92;5.68;;;;;;;;;;4859603;29;20041;-74
2022/02/26 05:28:02;;;;;;;12.98;4.95;;;;;;;;;;4862037;29;20033;-74
2022/02/26 05:30:29;;;;;;;16.58;5.40;;;;;;;;;;4866642;29;20128;-74
2022/02/26 05:32:56;;;;;;;27.88;9.55;;;;;;;;;;4867529;29;20044;-74
2022/02/26 05:35:22;;;;;;;39.30;15.52;;;;;;;;;;4867379;29;20053;-73
2022/02/26 05:37:48;;;;;;;28.48;12.35;;;;;;;;;;4860739;29;20053;-73
2022/02/26 05:40:14;;;;;;;23.23;10.32;;;;;;;;;;4872856;29;20160;-74
2022/02/26 05:42:40;;;;;;;21.02;9.32;;;;;;;;;;4871792;29;20041;-74
2022/02/26 05:45:06;;;;;;;21.98;8.43;;;;;;;;;;4866781;29;20037;-74
2022/02/26 05:47:32;;;;;;;25.25;9.20;;;;;;;;;;4859003;29;20038;-73
2022/02/26 05:49:58;;;;;;;23.45;10.88;;;;;;;;;;4859414;29;20037;-74
2022/02/26 05:52:24;;;;;;;23.73;7.88;;;;;;;;;;4864104;29;20597;-73
2022/02/26 05:54:50;;;;;;;27.70;10.30;;;;;;;;;;4866656;29;20040;-74
2022/02/26 05:57:16;;;;;;;25.35;8.68;;;;;;;;;;4863811;29;20590;-73
2022/02/26 05:59:42;;;;;;;23.23;9.70;;;;;;;;;;4859339;29;20037;-74
2022/02/26 06:02:08;;;;;;;24.42;9.05;;;;;;;;;;4864995;29;20038;-74
2022/02/26 06:04:34;;;;;;;21.17;7.53;;;;;;;;;;4858987;29;20061;-74
2022/02/26 06:07:00;;;;;;;14.60;5.65;;;;;;;;;;4862344;29;20041;-74
2022/02/26 06:09:26;;;;;;;16.50;6.00;;;;;;;;;;4869170;29;20037;-74
2022/02/26 06:11:52;;;;;;;18.67;5.32;;;;;;;;;;4863616;29;20208;-74
2022/02/26 06:14:18;;;;;;;15.32;5.53;;;;;;;;;;4867691;29;20545;-74
2022/02/26 06:16:44;;;;;;;14.43;6.32;;;;;;;;;;4861836;29;20033;-74
2022/02/26 06:19:11;;;;;;;14.98;6.13;;;;;;;;;;4861472;29;20041;-73
2022/02/26 06:21:37;;;;;;;16.05;5.68;;;;;;;;;;4861517;29;20471;-73
2022/02/26 06:24:03;;;;;;;12.60;5.88;;;;;;;;;;4868126;29;20041;-74
2022/02/26 06:26:29;;;;;;;17.95;5.55;;;;;;;;;;4867454;29;20404;-73
2022/02/26 06:28:55;;;;;;;14.95;5.78;;;;;;;;;;4863875;29;20055;-73
2022/02/26 06:31:22;;;;;;;12.48;5.25;;;;;;;;;;4860291;29;20049;-73
2022/02/26 06:33:48;;;;;;;21.98;5.43;;;;;;;;;;4862316;29;20052;-73
2022/02/26 06:36:14;;;;;;;20.88;5.97;;;;;;;;;;4861970;29;20037;-73
2022/02/26 06:38:40;;;;;;;22.27;6.72;;;;;;;;;;4861331;29;20055;-73
2022/02/26 06:41:06;;;;;;;22.00;5.57;;;;;;;;;;4858555;29;20745;-73
2022/02/26 06:43:32;;;;;;;15.68;4.95;;;;;;;;;;4866561;29;20048;-73
2022/02/26 06:45:58;;;;;;;15.43;4.75;;;;;;;;;;4864583;29;20030;-73
2022/02/26 06:48:24;;;;;;;16.80;4.70;;;;;;;;;;4860655;29;20070;-74
2022/02/26 06:50:50;;;;;;;16.17;5.18;;;;;;;;;;4863447;29;20037;-73
2022/02/26 06:53:16;;;;;;;17.05;4.57;;;;;;;;;;4865027;29;20120;-74
2022/02/26 06:55:42;;;;;;;15.85;4.90;;;;;;;;;;4863697;29;20124;-73
2022/02/26 06:58:08;;;;;;;14.18;5.30;;;;;;;;;;4861402;29;20046;-73
2022/02/26 07:00:34;;;;;;;12.30;4.07;;;;;;;;;;4860314;29;20037;-73
2022/02/26 07:03:00;;;;;;;11.77;4.60;;;;;;;;;;4862135;29;20150;-73
2022/02/26 07:05:26;;;;;;;15.30;5.53;;;;;;;;;;4858472;29;20593;-73
2022/02/26 07:07:52;;;;;;;13.65;5.85;;;;;;;;;;4860708;29;20041;-73
2022/02/26 07:10:18;;;;;;;21.85;7.15;;;;;;;;;;4862655;29;20157;-73
2022/02/26 07:12:44;;;;;;;18.60;6.45;;;;;;;;;;4859154;29;20125;-73
2022/02/26 07:15:10;;;;;;;18.17;6.95;;;;;;;;;;4858857;29;20112;-73
2022/02/26 07:17:36;;;;;;;18.67;6.75;;;;;;;;;;4866299;29;20104;-73
2022/02/26 07:20:03;;;;;;;19.58;7.00;;;;;;;;;;4862667;29;20467;-73
2022/02/26 07:22:29;;;;;;;17.33;6.28;;;;;;;;;;4862352;29;20033;-74
2022/02/26 07:24:55;;;;;;;18.73;6.75;;;;;;;;;;4864738;29;20033;-73
2022/02/26 07:27:21;;;;;;;17.85;7.03;;;;;;;;;;4860528;29;20468;-74
2022/02/26 07:29:47;;;;;;;15.57;7.38;;;;;;;;;;4864913;29;20066;-73
2022/02/26 07:32:13;;;;;;;19.20;7.35;;;;;;;;;;4858654;29;20037;-73
2022/02/26 07:34:39;;;;;;;17.77;8.35;;;;;;;;;;4865087;29;20041;-73
2022/02/26 07:37:05;;;;;;;22.70;8.70;;;;;;;;;;4869011;29;20108;-73
2022/02/26 07:39:31;;;;;;;30.48;8.10;;;;;;;;;;4869077;29;20033;-73
2022/02/26 07:41:57;;;;;;;17.88;6.32;;;;;;;;;;4861353;29;20858;-73
2022/02/26 07:44:23;;;;;;;20.27;6.75;;;;;;;;;;4859042;29;20026;-73
2022/02/26 07:46:49;;;;;;;15.00;6.07;;;;;;;;;;4862563;29;20121;-73
2022/02/26 07:49:15;;;;;;;17.15;6.30;;;;;;;;;;4860841;29;20045;-73
2022/02/26 07:51:41;;;;;;;23.35;8.45;;;;;;;;;;4868240;29;20113;-73
2022/02/26 07:54:07;;;;;;;21.73;7.60;;;;;;;;;;4863275;29;20037;-74
2022/02/26 07:56:33;;;;;;;18.67;4.78;;;;;;;;;;4860886;29;20478;-73
2022/02/26 07:58:59;;;;;;;24.55;5.13;;;;;;;;;;4864176;29;20106;-73
2022/02/26 08:01:25;;;;;;;10.55;1.98;;;;;;;;;;4858366;29;20037;-73
2022/02/26 08:03:51;;;;;;;13.25;2.28;;;;;;;;;;4863497;29;20635;-73
2022/02/26 08:06:17;;;;;;;8.55;2.75;;;;;;;;;;4857849;29;20090;-73
2022/02/26 08:08:44;;;;;;;16.13;4.57;;;;;;;;;;4873251;29;20144;-73
2022/02/26 08:11:10;;;;;;;14.07;4.82;;;;;;;;;;4868257;29;20125;-73
2022/02/26 08:13:36;;;;;;;14.10;5.80;;;;;;;;;;4862155;29;20691;-73
2022/02/26 08:16:02;;;;;;;20.48;7.07;;;;;;;;;;4862407;29;20089;-73
2022/02/26 08:18:28;;;;;;;23.35;7.65;;;;;;;;;;4860645;29;20599;-73
2022/02/26 08:20:54;;;;;;;21.55;6.28;;;;;;;;;;4857608;29;20037;-73
2022/02/26 08:23:20;;;;;;;12.50;5.47;;;;;;;;;;4862083;29;20062;-73
2022/02/26 08:25:46;;;;;;;14.82;4.25;;;;;;;;;;4856486;29;20490;-73
2022/02/26 08:28:12;;;;;;;13.65;4.57;;;;;;;;;;4863909;29;20420;-74
2022/02/26 08:30:38;;;;;;;14.20;4.40;;;;;;;;;;4859931;29;20041;-73
2022/02/26 08:33:04;;;;;;;22.30;6.65;;;;;;;;;;4861929;29;20044;-74
2022/02/26 08:35:30;;;;;;;20.50;6.95;;;;;;;;;;4864092;29;20040;-74
2022/02/26 08:37:56;;;;;;;15.77;5.60;;;;;;;;;;4863852;29;20730;-73
2022/02/26 08:40:23;;;;;;;19.10;6.30;;;;;;;;;;4855888;29;20075;-73
2022/02/26 08:42:49;;;;;;;23.10;7.57;;;;;;;;;;4860462;29;20032;-73
2022/02/26 08:45:15;;;;;;;18.73;5.97;;;;;;;;;;4860361;29;20044;-73
2022/02/26 08:47:42;;;;;;;15.90;5.15;;;;;;;;;;4863421;29;20415;-73
2022/02/26 08:50:09;;;;;;;13.45;4.00;;;;;;;;;;4860590;29;20079;-73
2022/02/26 08:52:35;;;;;;;13.35;4.00;;;;;;;;;;4864356;29;20486;-73
2022/02/26 08:55:02;;;;;;;13.48;3.38;;;;;;;;;;4858051;29;20179;-73
2022/02/26 08:57:28;;;;;;;14.15;4.85;;;;;;;;;;4858121;29;20037;-73
2022/02/26 08:59:54;;;;;;;16.65;4.90;;;;;;;;;;4864204;29;20048;-73
2022/02/26 09:02:20;;;;;;;16.75;5.63;;;;;;;;;;4860259;29;20065;-73
2022/02/26 09:04:46;;;;;;;18.40;5.78;;;;;;;;;;4865780;29;20097;-73
2022/02/26 09:07:12;;;;;;;20.73;7.20;;;;;;;;;;4864042;29;20037;-73
2022/02/26 09:09:38;;;;;;;16.02;6.68;;;;;;;;;;4861953;29;20048;-74
2022/02/26 09:12:04;;;;;;;9.93;2.55;;;;;;;;;;4863480;29;20055;-73
2022/02/26 09:14:30;;;;;;;8.60;1.80;;;;;;;;;;4860216;29;20037;-74
2022/02/26 09:16:56;;;;;;;9.93;2.40;;;;;;;;;;4863703;29;20117;-74
2022/02/26 09:19:22;;;;;;;11.70;2.60;;;;;;;;;;4865312;29;20128;-74
2022/02/26 09:21:49;;;;;;;11.52;2.03;;;;;;;;;;4856878;29;20021;-74
2022/02/26 09:24:15;;;;;;;9.50;2.00;;;;;;;;;;4859386;29;20608;-73
2022/02/26 09:26:41;;;;;;;12.05;2.45;;;;;;;;;;4857327;29;20057;-73
2022/02/26 09:29:07;;;;;;;9.75;2.03;;;;;;;;;;4868165;29;20467;-74
2022/02/26 09:31:33;;;;;;;9.93;2.65;;;;;;;;;;4844745;29;20148;-73
2022/02/26 09:33:59;;;;;;;9.35;2.55;;;;;;;;;;4861269;29;20064;-74
2022/02/26 09:36:25;;;;;;;6.47;1.95;;;;;;;;;;4859762;29;20101;-74
2022/02/26 09:38:51;;;;;;;9.35;2.67;;;;;;;;;;4866803;29;20480;-74
2022/02/26 09:41:17;;;;;;;9.13;1.73;;;;;;;;;;4858188;29;20037;-73
2022/02/26 09:43:43;;;;;;;9.85;2.17;;;;;;;;;;4859727;29;20038;-73
2022/02/26 09:46:11;;;;;;;6.22;1.70;;;;;;;;;;4858110;29;20101;-74
2022/02/26 09:48:37;;;;;;;6.95;1.55;;;;;;;;;;4868449;29;20037;-74
2022/02/26 09:51:04;;;;;;;11.25;2.63;;;;;;;;;;4867371;29;20445;-74
2022/02/26 09:53:30;;;;;;;14.10;2.25;;;;;;;;;;4867321;29;20051;-74
2022/02/26 09:55:58;;;;;;;11.02;2.40;;;;;;;;;;4865788;29;20116;-73
2022/02/26 09:58:25;;;;;;;9.45;1.80;;;;;;;;;;4864830;29;20481;-74
2022/02/26 10:00:51;;;;;;;6.97;1.88;;;;;;;;;;4861222;29;20029;-74
2022/02/26 10:03:34;;;;;;;8.25;1.80;;;;;;;;;;4862751;29;20045;-74
2022/02/26 10:06:12;;;;;;;9.25;1.90;;;;;;;;;;4862082;29;20128;-73
2022/02/26 10:08:39;;;;;;;7.53;1.65;;;;;;;;;;4860930;29;20056;-74
2022/02/26 10:11:06;;;;;;;6.95;1.48;;;;;;;;;;4866813;29;20045;-74
2022/02/26 10:13:38;;;;;;;9.07;1.77;;;;;;;;;;4864238;29;20044;-74
2022/02/26 10:16:04;;;;;;;8.45;1.80;;;;;;;;;;4862024;29;20124;-73
2022/02/26 10:18:30;;;;;;;5.65;1.35;;;;;;;;;;4866228;29;20128;-74
2022/02/26 10:20:59;;;;;;;8.88;1.42;;;;;;;;;;4861140;29;20149;-74
2022/02/26 10:23:25;;;;;;;7.03;1.60;;;;;;;;;;4863669;29;20094;-74
2022/02/26 10:25:51;;;;;;;8.77;1.75;;;;;;;;;;4864443;29;20414;-74
2022/02/26 10:28:18;;;;;;;7.28;1.85;;;;;;;;;;4859570;29;20041;-74
2022/02/26 10:30:45;;;;;;;7.80;2.13;;;;;;;;;;4864417;29;20036;-74
2022/02/26 10:33:14;;;;;;;6.25;1.77;;;;;;;;;;4865440;29;20524;-74
2022/02/26 10:35:40;;;;;;;7.15;1.40;;;;;;;;;;4857605;29;20033;-74
2022/02/26 10:38:12;;;;;;;7.03;1.45;;;;;;;;;;4869194;29;20581;-74
2022/02/26 10:40:38;;;;;;;;;;;;;;;;;;4866130;29;20780;-74
2022/02/26 10:43:04;;;;;;;4.60;1.30;;;;;;;;;;4862097;29;19916;-74
2022/02/26 10:45:30;;;;;;;8.65;1.77;;;;;;;;;;4864261;29;20075;-74
2022/02/26 10:47:59;;;;;;;5.78;1.42;;;;;;;;;;4859096;29;20682;-74
2022/02/26 10:50:25;;;;;;;6.10;1.23;;;;;;;;;;4857218;29;20515;-74
2022/02/26 10:52:54;;;;;;;4.25;1.10;;;;;;;;;;4858512;29;20157;-74
2022/02/26 10:55:20;;;;;;;10.10;1.80;;;;;;;;;;4859816;29;20072;-74
2022/02/26 10:57:46;;;;;;;8.02;1.55;;;;;;;;;;4888623;24;20053;-74
2022/02/26 11:00:12;;;;;;;7.68;1.40;;;;;;;;;;4881414;29;20081;-74
2022/02/26 11:02:38;;;;;;;9.90;3.08;;;;;;;;;;4854851;29;20931;-74
2022/02/26 11:05:07;;;;;;;9.88;3.08;;;;;;;;;;4873507;29;20036;-74
2022/02/26 11:07:34;;;;;;;8.43;2.15;;;;;;;;;;4880290;29;20025;-74
2022/02/26 11:10:00;;;;;;;9.55;1.42;;;;;;;;;;4876093;29;20069;-74
2022/02/26 11:12:27;;;;;;;5.22;1.50;;;;;;;;;;4871262;29;20032;-74
2022/02/26 11:15:04;;;;;;;8.88;1.40;;;;;;;;;;4864807;29;20547;-74
2022/02/26 11:17:31;;;;;;;8.48;1.35;;;;;;;;;;4876241;29;20048;-74
2022/02/26 11:19:59;;;;;;;10.48;1.58;;;;;;;;;;4864773;29;20068;-74
2022/02/26 11:22:25;;;;;;;7.60;1.88;;;;;;;;;;4876318;29;20769;-74
2022/02/26 11:24:53;;;;;;;10.60;3.05;;;;;;;;;;4873017;29;20062;-74
2022/02/26 11:27:20;;;;;;;18.75;9.73;;;;;;;;;;4870750;29;20048;-74
2022/02/26 11:29:46;;;;;;;11.48;4.13;;;;;;;;;;4874580;29;20036;-74
2022/02/26 11:32:15;;;;;;;5.85;1.50;;;;;;;;;;4876583;29;20037;-74
2022/02/26 11:34:42;;;;;;;5.03;1.10;;;;;;;;;;4863189;29;20034;-74
2022/02/26 11:37:09;;;;;;;4.22;0.95;;;;;;;;;;4858645;29;20098;-74
2022/02/26 11:39:43;;;;;;;4.32;0.88;;;;;;;;;;4878327;29;20053;-74
2022/02/26 11:42:18;;;;;;;5.82;1.10;;;;;;;;;;4873572;29;20032;-74
2022/02/26 11:44:45;;;;;;;3.58;0.82;;;;;;;;;;4875052;29;20538;-74
2022/02/26 11:47:14;;;;;;;4.70;0.70;;;;;;;;;;4887351;29;20040;-74
2022/02/26 11:49:54;;;;;;;6.03;0.80;;;;;;;;;;4877535;29;20112;-74
2022/02/26 11:52:35;;;;;;;7.18;1.00;;;;;;;;;;4874360;29;20073;-74
2022/02/26 11:55:01;;;;;;;6.45;1.08;;;;;;;;;;4874172;29;20116;-74
2022/02/26 11:57:30;;;;;;;3.85;0.77;;;;;;;;;;4874827;29;20161;-75
2022/02/26 12:00:08;;;;;;;6.35;1.20;;;;;;;;;;4873037;29;20056;-74
2022/02/26 12:02:34;;;;;;;5.22;0.77;;;;;;;;;;4874941;29;20361;-75
2022/02/26 12:05:01;;;;;;;7.72;1.27;;;;;;;;;;4875925;29;20112;-74
2022/02/26 12:07:30;;;;;;;6.25;1.38;;;;;;;;;;4874075;29;20085;-75
2022/02/26 12:10:00;;;;;;;5.65;0.95;;;;;;;;;;4879926;29;20033;-74
2022/02/26 12:12:41;;;;;;;4.97;1.40;;;;;;;;;;4871469;29;20044;-74
2022/02/26 12:15:15;;;;;;;4.03;1.00;;;;;;;;;;4874011;29;20048;-74
2022/02/26 12:18:12;;;;;;;3.67;0.90;;;;;;;;;;4875555;29;20123;-74
2022/02/26 12:20:39;;;;;;;8.23;2.17;;;;;;;;;;4869485;29;20036;-75
2022/02/26 12:23:15;;;;;;;5.10;1.30;;;;;;;;;;4875590;29;20038;-75
2022/02/26 12:25:43;;;;;;;7.43;1.80;;;;;;;;;;4879709;29;20037;-74
2022/02/26 12:28:12;;;;;;;6.40;2.22;;;;;;;;;;4874373;29;20387;-75
2022/02/26 12:30:52;;;;;;;5.53;1.40;;;;;;;;;;4872588;29;20210;-75
2022/02/26 12:33:19;;;;;;;4.30;1.05;;;;;;;;;;4876102;29;20044;-74
2022/02/26 12:35:45;;;;;;;6.40;1.13;;;;;;;;;;4886487;29;20032;-75
2022/02/26 12:38:28;;;;;;;6.50;1.08;;;;;;;;;;4872719;29;20037;-75
2022/02/26 12:40:56;;;;;;;5.35;1.25;;;;;;;;;;4875970;29;20100;-74
2022/02/26 12:43:27;;;;;;;3.75;0.95;;;;;;;;;;4870871;29;20571;-74
2022/02/26 12:45:53;;;;;;;3.63;1.00;;;;;;;;;;4874705;29;20129;-75
2022/02/26 12:48:19;;;;;;;6.00;1.33;;;;;;;;;;4874096;29;20797;-75
2022/02/26 12:50:46;;;;;;;6.35;1.17;;;;;;;;;;4845932;29;20041;-75
2022/02/26 12:53:12;;;;;;;4.32;1.17;;;;;;;;;;4869418;29;20037;-74
2022/02/26 12:55:38;;;;;;;5.93;1.00;;;;;;;;;;4873257;29;20048;-75
2022/02/26 12:58:04;;;;;;;5.38;0.98;;;;;;;;;;4872687;29;20057;-75
2022/02/26 13:00:31;;;;;;;6.50;1.33;;;;;;;;;;4866410;29;20494;-75
2022/02/26 13:03:00;;;;;;;5.20;1.33;;;;;;;;;;4881683;29;20045;-75
2022/02/26 13:05:27;;;;;;;7.35;0.70;;;;;;;;;;4860941;29;20030;-75
2022/02/26 13:07:57;;;;;;;4.18;0.90;;;;;;;;;;4866395;29;20045;-75
2022/02/26 13:10:34;;;;;;;5.93;1.23;;;;;;;;;;4862629;29;20040;-75
2022/02/26 13:13:07;;;;;;;3.42;0.85;;;;;;;;;;4856875;29;20046;-75
2022/02/26 13:15:33;;;;;;;5.95;1.08;;;;;;;;;;4855348;29;20124;-75
2022/02/26 13:17:59;;;;;;;8.02;0.98;;;;;;;;;;4857420;29;20082;-74
2022/02/26 13:20:26;;;;;;;4.88;1.33;;;;;;;;;;4854537;29;20082;-75
2022/02/26 13:22:52;;;;;;;5.70;1.00;;;;;;;;;;4861597;29;20029;-74
2022/02/26 13:25:19;;;;;;;5.78;1.08;;;;;;;;;;4859764;29;20120;-75
2022/02/26 13:27:46;;;;;;;4.68;0.80;;;;;;;;;;4860695;29;20073;-75
2022/02/26 13:30:12;;;;;;;4.55;0.93;;;;;;;;;;4859854;29;20037;-75
2022/02/26 13:32:42;;;;;;;4.00;0.80;;;;;;;;;;4858896;29;20080;-75
2022/02/26 13:35:08;;;;;;;3.47;0.80;;;;;;;;;;4854955;29;20120;-75
2022/02/26 13:37:36;;;;;;;5.50;1.05;;;;;;;;;;4862461;29;20045;-75
2022/02/26 13:40:03;;;;;;;6.00;1.27;;;;;;;;;;4859548;29;20120;-75
2022/02/26 13:42:30;;;;;;;5.93;0.88;;;;;;;;;;4864711;29;20064;-75
2022/02/26 13:45:07;;;;;;;5.68;0.65;;;;;;;;;;4861973;29;20029;-75
2022/02/26 13:47:34;;;;;;;4.78;1.00;;;;;;;;;;4859005;29;20102;-75
2022/02/26 13:50:00;;;;;;;5.55;1.10;;;;;;;;;;4859143;29;20120;-75
2022/02/26 13:52:27;;;;;;;4.90;0.95;;;;;;;;;;4860627;29;20040;-75
2022/02/26 13:54:54;;;;;;;5.72;1.10;;;;;;;;;;4861382;29;20504;-75
2022/02/26 13:57:22;;;;;;;3.30;0.80;;;;;;;;;;4853179;29;20824;-75
2022/02/26 13:59:49;;;;;;;5.65;0.88;;;;;;;;;;4862312;29;20045;-75
2022/02/26 14:02:22;;;;;;;6.93;1.00;;;;;;;;;;4859483;29;20041;-75
2022/02/26 14:04:48;;;;;;;3.63;0.82;;;;;;;;;;4851615;29;20084;-75
2022/02/26 14:07:14;;;;;;;2.78;0.57;;;;;;;;;;4858152;29;20090;-76
2022/02/26 14:09:44;;;;;;;4.60;1.00;;;;;;;;;;4859325;29;20482;-75
2022/02/26 14:12:11;;;;;;;5.30;1.00;;;;;;;;;;4844079;29;20033;-75
2022/02/26 14:14:38;;;;;;;3.75;0.90;;;;;;;;;;4855632;29;20049;-75
2022/02/26 14:17:06;;;;;;;4.18;0.90;;;;;;;;;;4865487;29;20041;-75
2022/02/26 14:19:33;;;;;;;4.35;1.00;;;;;;;;;;4857520;29;20040;-75
2022/02/26 14:21:59;;;;;;;5.00;1.17;;;;;;;;;;4842315;29;20044;-75
2022/02/26 14:24:26;;;;;;;5.78;1.00;;;;;;;;;;4850526;29;20663;-75
2022/02/26 14:26:55;;;;;;;4.75;0.90;;;;;;;;;;4854941;29;20134;-75
2022/02/26 14:29:32;;;;;;;4.97;0.70;;;;;;;;;;4851727;29;20507;-75
2022/02/26 14:32:08;;;;;;;6.53;0.68;;;;;;;;;;4859862;29;20080;-75